RYR17PM EPPO-EBCI
Flight info
| Callsign | RYR17PM |
|---|---|
| Flight time | N/A |
| Altitude | 36000 |
| Route | ELSUP Z181 XIGRI DCT ESIKA Z20 MAG L986 POVEL DCT ABAMI Z717 NEREL T855 BATTY |
| Aircraft | B738/M-SDE2E3FGHIRWXY/LB1 |
Departure
| Time | 2026-05-09 14:29 |
|---|---|
| Airport | Poznań-Ławica Airport (EPPO) |
Arrival
| Time | N/A |
|---|---|
| Airport | Brussels South Charleroi Airport (EBCI) |
| Time | Latitude | Longitude | Altitude | Speed | Heading |
|---|---|---|---|---|---|
| 2026-05-09 13:54 | 52.41585 | 16.82734 | 290 ft | 0 kts | 183° |
| 2026-05-09 14:17 | 52.41595 | 16.82735 | 290 ft | 2 kts | 183° |
| 2026-05-09 14:18 | 52.41610 | 16.82736 | 290 ft | 2 kts | 183° |
| 2026-05-09 14:18 | 52.41621 | 16.82737 | 290 ft | 0 kts | 183° |
| 2026-05-09 14:18 | 52.41634 | 16.82737 | 290 ft | 2 kts | 167° |
| 2026-05-09 14:18 | 52.41648 | 16.82728 | 290 ft | 2 kts | 150° |
| 2026-05-09 14:19 | 52.41660 | 16.82713 | 290 ft | 2 kts | 131° |
| 2026-05-09 14:19 | 52.41668 | 16.82693 | 290 ft | 2 kts | 113° |
| 2026-05-09 14:19 | 52.41672 | 16.82672 | 290 ft | 0 kts | 97° |
| 2026-05-09 14:19 | 52.41672 | 16.82661 | 290 ft | 1 kts | 93° |
| 2026-05-09 14:20 | 52.41672 | 16.82660 | 290 ft | 0 kts | 94° |
| 2026-05-09 14:20 | 52.41672 | 16.82661 | 290 ft | 0 kts | 94° |
| 2026-05-09 14:22 | 52.41672 | 16.82680 | 290 ft | 5 kts | 94° |
| 2026-05-09 14:22 | 52.41669 | 16.82738 | 290 ft | 10 kts | 94° |
| 2026-05-09 14:23 | 52.41717 | 16.82845 | 291 ft | 8 kts | 21° |
| 2026-05-09 14:23 | 52.41769 | 16.82875 | 292 ft | 9 kts | 19° |
| 2026-05-09 14:23 | 52.41853 | 16.82909 | 294 ft | 12 kts | 351° |
| 2026-05-09 14:23 | 52.41900 | 16.82805 | 294 ft | 12 kts | 287° |
| 2026-05-09 14:24 | 52.41926 | 16.82668 | 292 ft | 13 kts | 288° |
| 2026-05-09 14:24 | 52.41954 | 16.82524 | 292 ft | 12 kts | 288° |
| 2026-05-09 14:24 | 52.41981 | 16.82387 | 293 ft | 14 kts | 288° |
| 2026-05-09 14:24 | 52.42016 | 16.82214 | 293 ft | 16 kts | 289° |
| 2026-05-09 14:25 | 52.42048 | 16.82042 | 293 ft | 15 kts | 288° |
| 2026-05-09 14:25 | 52.42080 | 16.81876 | 293 ft | 15 kts | 287° |
| 2026-05-09 14:25 | 52.42111 | 16.81714 | 294 ft | 14 kts | 288° |
| 2026-05-09 14:25 | 52.42144 | 16.81545 | 295 ft | 15 kts | 288° |
| 2026-05-09 14:26 | 52.42174 | 16.81393 | 297 ft | 14 kts | 287° |
| 2026-05-09 14:26 | 52.42209 | 16.81210 | 297 ft | 17 kts | 287° |
| 2026-05-09 14:26 | 52.42242 | 16.81031 | 300 ft | 15 kts | 287° |
| 2026-05-09 14:26 | 52.42272 | 16.80879 | 302 ft | 13 kts | 288° |
| 2026-05-09 14:27 | 52.42298 | 16.80744 | 303 ft | 11 kts | 288° |
| 2026-05-09 14:27 | 52.42323 | 16.80620 | 303 ft | 11 kts | 291° |
| 2026-05-09 14:27 | 52.42384 | 16.80561 | 303 ft | 10 kts | 7° |
| 2026-05-09 14:27 | 52.42455 | 16.80594 | 303 ft | 10 kts | 20° |
| 2026-05-09 14:28 | 52.42483 | 16.80678 | 303 ft | 9 kts | 104° |
| 2026-05-09 14:28 | 52.42456 | 16.80828 | 303 ft | 31 kts | 107° |
| 2026-05-09 14:28 | 52.42309 | 16.81576 | 296 ft | 103 kts | 107° |
| 2026-05-09 14:28 | 52.42031 | 16.83015 | 304 ft | 158 kts | 107° |
| 2026-05-09 14:29 | 52.41671 | 16.84808 | 697 ft | 173 kts | 107° |
| 2026-05-09 14:29 | 52.41312 | 16.86680 | 1494 ft | 171 kts | 106° |
| 2026-05-09 14:29 | 52.40970 | 16.88456 | 2133 ft | 172 kts | 105° |
| 2026-05-09 14:29 | 52.40593 | 16.90414 | 2498 ft | 188 kts | 105° |
| 2026-05-09 14:30 | 52.40184 | 16.92516 | 2915 ft | 202 kts | 105° |
| 2026-05-09 14:30 | 52.39742 | 16.94777 | 3312 ft | 218 kts | 105° |
| 2026-05-09 14:30 | 52.39266 | 16.97221 | 3869 ft | 228 kts | 105° |
| 2026-05-09 14:30 | 52.38794 | 16.99651 | 4615 ft | 229 kts | 105° |
| 2026-05-09 14:31 | 52.38311 | 17.02146 | 5294 ft | 231 kts | 105° |
| 2026-05-09 14:31 | 52.37823 | 17.04658 | 6005 ft | 234 kts | 105° |
| 2026-05-09 14:31 | 52.37334 | 17.07158 | 6733 ft | 236 kts | 105° |
| 2026-05-09 14:31 | 52.36732 | 17.09679 | 7396 ft | 243 kts | 116° |
| 2026-05-09 14:32 | 52.35633 | 17.11766 | 8046 ft | 252 kts | 143° |
| 2026-05-09 14:32 | 52.34039 | 17.12935 | 8719 ft | 258 kts | 166° |
| 2026-05-09 14:32 | 52.32236 | 17.13218 | 9438 ft | 262 kts | 183° |
| 2026-05-09 14:32 | 52.30476 | 17.12657 | 10168 ft | 264 kts | 201° |
| 2026-05-09 14:33 | 52.28943 | 17.11099 | 10887 ft | 262 kts | 229° |
| 2026-05-09 14:33 | 52.27940 | 17.08673 | 11604 ft | 261 kts | 249° |
| 2026-05-09 14:33 | 52.27433 | 17.05831 | 12230 ft | 265 kts | 263° |
| 2026-05-09 14:33 | 52.27354 | 17.02792 | 12656 ft | 277 kts | 280° |
| 2026-05-09 14:34 | 52.27832 | 16.99701 | 13130 ft | 287 kts | 290° |
| 2026-05-09 14:34 | 52.28496 | 16.96587 | 13604 ft | 301 kts | 291° |
| 2026-05-09 14:34 | 52.29211 | 16.93262 | 14068 ft | 315 kts | 290° |
| 2026-05-09 14:34 | 52.29920 | 16.89830 | 14538 ft | 330 kts | 289° |
| 2026-05-09 14:35 | 52.30633 | 16.86240 | 15295 ft | 335 kts | 289° |
| 2026-05-09 14:35 | 52.31339 | 16.82617 | 16043 ft | 340 kts | 289° |
| 2026-05-09 14:35 | 52.32044 | 16.78961 | 16819 ft | 344 kts | 289° |
| 2026-05-09 14:35 | 52.32761 | 16.75235 | 17619 ft | 346 kts | 289° |
| 2026-05-09 14:36 | 52.33480 | 16.71491 | 18386 ft | 350 kts | 289° |
| 2026-05-09 14:36 | 52.34206 | 16.67709 | 19151 ft | 352 kts | 289° |
| 2026-05-09 14:36 | 52.34942 | 16.63876 | 19847 ft | 357 kts | 289° |
| 2026-05-09 14:36 | 52.35685 | 16.60003 | 20562 ft | 361 kts | 289° |
| 2026-05-09 14:37 | 52.36438 | 16.56069 | 21238 ft | 364 kts | 289° |
| 2026-05-09 14:37 | 52.37196 | 16.52101 | 21909 ft | 367 kts | 289° |
| 2026-05-09 14:37 | 52.37952 | 16.48138 | 22484 ft | 372 kts | 289° |
| 2026-05-09 14:37 | 52.38718 | 16.44113 | 23132 ft | 375 kts | 290° |
| 2026-05-09 14:38 | 52.39498 | 16.40005 | 23733 ft | 378 kts | 290° |
| 2026-05-09 14:38 | 52.40275 | 16.35898 | 24328 ft | 381 kts | 290° |
| 2026-05-09 14:38 | 52.41008 | 16.31712 | 24806 ft | 387 kts | 287° |
| 2026-05-09 14:38 | 52.41659 | 16.27472 | 25405 ft | 389 kts | 286° |
| 2026-05-09 14:39 | 52.42286 | 16.23131 | 25875 ft | 394 kts | 286° |
| 2026-05-09 14:39 | 52.42905 | 16.18757 | 26382 ft | 397 kts | 286° |
| 2026-05-09 14:39 | 52.43525 | 16.14386 | 26863 ft | 400 kts | 287° |
| 2026-05-09 14:39 | 52.44169 | 16.09879 | 27313 ft | 404 kts | 287° |
| 2026-05-09 14:40 | 52.44809 | 16.05430 | 27826 ft | 405 kts | 287° |
| 2026-05-09 14:40 | 52.45462 | 16.00912 | 28292 ft | 408 kts | 288° |
| 2026-05-09 14:40 | 52.46122 | 15.96363 | 28690 ft | 412 kts | 288° |
| 2026-05-09 14:40 | 52.46782 | 15.91808 | 29143 ft | 414 kts | 288° |
| 2026-05-09 14:41 | 52.47445 | 15.87238 | 29509 ft | 419 kts | 288° |
| 2026-05-09 14:41 | 52.48117 | 15.82585 | 29905 ft | 422 kts | 288° |
| 2026-05-09 14:41 | 52.48795 | 15.77881 | 30316 ft | 424 kts | 289° |
| 2026-05-09 14:41 | 52.49467 | 15.73203 | 30812 ft | 424 kts | 288° |
| 2026-05-09 14:42 | 52.50136 | 15.68510 | 31400 ft | 421 kts | 288° |
| 2026-05-09 14:42 | 52.50790 | 15.63915 | 31930 ft | 418 kts | 288° |
| 2026-05-09 14:42 | 52.51452 | 15.59250 | 32415 ft | 417 kts | 288° |
| 2026-05-09 14:42 | 52.51853 | 15.56422 | 32681 ft | 417 kts | 289° |
| 2026-05-09 14:43 | 52.52757 | 15.50034 | 33260 ft | 417 kts | 288° |
| 2026-05-09 14:43 | 52.53333 | 15.45366 | 33631 ft | 420 kts | 285° |
| 2026-05-09 14:43 | 52.53702 | 15.40603 | 34040 ft | 422 kts | 280° |
| 2026-05-09 14:43 | 52.53809 | 15.35831 | 34425 ft | 425 kts | 276° |
| 2026-05-09 14:44 | 52.53751 | 15.30965 | 34719 ft | 427 kts | 272° |
| 2026-05-09 14:44 | 52.53608 | 15.26113 | 35019 ft | 428 kts | 271° |
| 2026-05-09 14:44 | 52.53428 | 15.21280 | 35299 ft | 428 kts | 271° |
| 2026-05-09 14:44 | 52.53232 | 15.16403 | 35635 ft | 426 kts | 270° |
| 2026-05-09 14:45 | 52.53037 | 15.11636 | 35993 ft | 423 kts | 270° |
| 2026-05-09 14:45 | 52.52843 | 15.06812 | 36148 ft | 425 kts | 270° |
| 2026-05-09 14:45 | 52.52652 | 15.01963 | 35850 ft | 425 kts | 270° |
| 2026-05-09 14:45 | 52.52464 | 14.97165 | 35982 ft | 421 kts | 271° |
| 2026-05-09 14:46 | 52.52280 | 14.92369 | 36147 ft | 423 kts | 270° |
| 2026-05-09 14:46 | 52.52099 | 14.87581 | 36158 ft | 426 kts | 270° |
| 2026-05-09 14:46 | 52.51730 | 14.77914 | 36157 ft | 423 kts | 270° |
| 2026-05-09 14:47 | 52.51358 | 14.68315 | 36156 ft | 425 kts | 270° |
| 2026-05-09 14:47 | 52.50569 | 14.58703 | 36147 ft | 428 kts | 262° |
| 2026-05-09 14:48 | 52.48964 | 14.49316 | 36159 ft | 431 kts | 257° |
| 2026-05-09 14:48 | 52.47121 | 14.39974 | 36145 ft | 430 kts | 256° |
| 2026-05-09 14:49 | 52.45272 | 14.30664 | 36145 ft | 432 kts | 256° |
| 2026-05-09 14:49 | 52.43439 | 14.21332 | 36147 ft | 430 kts | 256° |
| 2026-05-09 14:50 | 52.41617 | 14.12002 | 36151 ft | 433 kts | 256° |
| 2026-05-09 14:50 | 52.39804 | 14.02713 | 36148 ft | 432 kts | 256° |
| 2026-05-09 14:51 | 52.37975 | 13.93381 | 36143 ft | 432 kts | 256° |
| 2026-05-09 14:51 | 52.36137 | 13.84043 | 36149 ft | 432 kts | 256° |
| 2026-05-09 14:52 | 52.34290 | 13.74700 | 36151 ft | 431 kts | 256° |
| 2026-05-09 14:52 | 52.32445 | 13.65417 | 36152 ft | 431 kts | 256° |
| 2026-05-09 14:53 | 52.30600 | 13.56178 | 36162 ft | 430 kts | 256° |
| 2026-05-09 14:53 | 52.28732 | 13.46860 | 36155 ft | 430 kts | 256° |
| 2026-05-09 14:54 | 52.26867 | 13.37600 | 36161 ft | 431 kts | 256° |
| 2026-05-09 14:54 | 52.25002 | 13.28389 | 36143 ft | 430 kts | 255° |
| 2026-05-09 14:55 | 52.23114 | 13.19109 | 36165 ft | 432 kts | 255° |
| 2026-05-09 14:55 | 52.21230 | 13.09895 | 36150 ft | 430 kts | 255° |
| 2026-05-09 14:56 | 52.19334 | 13.00660 | 36141 ft | 430 kts | 255° |
| 2026-05-09 14:56 | 52.17438 | 12.91469 | 36143 ft | 430 kts | 255° |
| 2026-05-09 14:57 | 52.15537 | 12.82300 | 36141 ft | 429 kts | 255° |
| 2026-05-09 14:57 | 52.13626 | 12.73120 | 36139 ft | 429 kts | 255° |
| 2026-05-09 14:58 | 52.11829 | 12.64019 | 36135 ft | 427 kts | 259° |
| 2026-05-09 14:58 | 52.10408 | 12.54573 | 36121 ft | 426 kts | 261° |
| 2026-05-09 14:59 | 52.09127 | 12.45237 | 36122 ft | 425 kts | 262° |
| 2026-05-09 14:59 | 52.07829 | 12.35921 | 36112 ft | 425 kts | 261° |
| 2026-05-09 15:00 | 52.06495 | 12.26582 | 36119 ft | 424 kts | 260° |
| 2026-05-09 15:00 | 52.05825 | 12.21966 | 36117 ft | 424 kts | 260° |
| 2026-05-09 15:01 | 52.03083 | 12.03341 | 36119 ft | 425 kts | 260° |
| 2026-05-09 15:02 | 52.01696 | 11.94046 | 36113 ft | 425 kts | 260° |
| 2026-05-09 15:02 | 52.00356 | 11.84807 | 36117 ft | 422 kts | 263° |
| 2026-05-09 15:03 | 52.00072 | 11.75479 | 36134 ft | 414 kts | 280° |
| 2026-05-09 15:03 | 52.01134 | 11.66385 | 36138 ft | 411 kts | 286° |
| 2026-05-09 15:04 | 52.02472 | 11.57411 | 36139 ft | 411 kts | 287° |
| 2026-05-09 15:06 | 52.07627 | 11.21359 | 36133 ft | 411 kts | 285° |
| 2026-05-09 15:06 | 52.08873 | 11.12261 | 36132 ft | 411 kts | 284° |
| 2026-05-09 15:07 | 52.10092 | 11.03281 | 36132 ft | 410 kts | 284° |
| 2026-05-09 15:07 | 52.11308 | 10.94275 | 36132 ft | 410 kts | 284° |
| 2026-05-09 15:08 | 52.12297 | 10.85122 | 36130 ft | 413 kts | 276° |
| 2026-05-09 15:08 | 52.11684 | 10.75860 | 36131 ft | 418 kts | 258° |
| 2026-05-09 15:08 | 52.10915 | 10.71272 | 36128 ft | 419 kts | 256° |
| 2026-05-09 15:10 | 52.04167 | 10.35288 | 36122 ft | 417 kts | 256° |
| 2026-05-09 15:11 | 52.02491 | 10.26277 | 36121 ft | 418 kts | 255° |
| 2026-05-09 15:11 | 52.00813 | 10.17287 | 36119 ft | 418 kts | 255° |
| 2026-05-09 15:12 | 51.99128 | 10.08290 | 36120 ft | 418 kts | 255° |
| 2026-05-09 15:12 | 51.97438 | 9.99307 | 36113 ft | 417 kts | 255° |
| 2026-05-09 15:13 | 51.95749 | 9.90374 | 36112 ft | 416 kts | 255° |
| 2026-05-09 15:13 | 51.94051 | 9.81439 | 36094 ft | 416 kts | 255° |
| 2026-05-09 15:14 | 51.92359 | 9.72581 | 36092 ft | 416 kts | 255° |
| 2026-05-09 15:14 | 51.90649 | 9.63668 | 36086 ft | 416 kts | 255° |
| 2026-05-09 15:15 | 51.89208 | 9.56192 | 36084 ft | 416 kts | 254° |
| 2026-05-09 15:15 | 51.87203 | 9.45829 | 36079 ft | 415 kts | 254° |
| 2026-05-09 15:16 | 51.85479 | 9.36967 | 36071 ft | 414 kts | 254° |
| 2026-05-09 15:16 | 51.83757 | 9.28161 | 36064 ft | 414 kts | 253° |
| 2026-05-09 15:17 | 51.82020 | 9.19313 | 36060 ft | 414 kts | 253° |
| 2026-05-09 15:17 | 51.80275 | 9.10467 | 36063 ft | 413 kts | 253° |
| 2026-05-09 15:18 | 51.78532 | 9.01666 | 36056 ft | 414 kts | 253° |
| 2026-05-09 15:18 | 51.76781 | 8.92867 | 36058 ft | 414 kts | 253° |
| 2026-05-09 15:19 | 51.75017 | 8.84048 | 36060 ft | 414 kts | 253° |
| 2026-05-09 15:19 | 51.73251 | 8.75253 | 36058 ft | 412 kts | 253° |
| 2026-05-09 15:20 | 51.70600 | 8.62129 | 36062 ft | 411 kts | 252° |
| 2026-05-09 15:21 | 51.68834 | 8.53432 | 36065 ft | 412 kts | 252° |
| 2026-05-09 15:21 | 51.67051 | 8.44694 | 36060 ft | 410 kts | 252° |
| 2026-05-09 15:22 | 51.65279 | 8.36050 | 36062 ft | 410 kts | 252° |
| 2026-05-09 15:22 | 51.63486 | 8.27338 | 36055 ft | 410 kts | 251° |
| 2026-05-09 15:23 | 51.61691 | 8.18653 | 36053 ft | 410 kts | 251° |
| 2026-05-09 15:23 | 51.59889 | 8.09971 | 36051 ft | 410 kts | 251° |
| 2026-05-09 15:24 | 51.58086 | 8.01327 | 36042 ft | 410 kts | 251° |
| 2026-05-09 15:24 | 51.56280 | 7.92703 | 36048 ft | 410 kts | 251° |
| 2026-05-09 15:25 | 51.54466 | 7.84077 | 36046 ft | 409 kts | 251° |
| 2026-05-09 15:25 | 51.52643 | 7.75446 | 36051 ft | 409 kts | 251° |
| 2026-05-09 15:26 | 51.49890 | 7.62479 | 36050 ft | 409 kts | 251° |
| 2026-05-09 15:26 | 51.48063 | 7.53918 | 36051 ft | 409 kts | 251° |
| 2026-05-09 15:27 | 51.46206 | 7.45257 | 36046 ft | 409 kts | 251° |
| 2026-05-09 15:27 | 51.44362 | 7.36688 | 36046 ft | 408 kts | 250° |
| 2026-05-09 15:28 | 51.42250 | 7.28303 | 36046 ft | 408 kts | 242° |
| 2026-05-09 15:28 | 51.39238 | 7.20669 | 36046 ft | 407 kts | 233° |
| 2026-05-09 15:29 | 51.35853 | 7.13445 | 36043 ft | 407 kts | 232° |
| 2026-05-09 15:29 | 51.32441 | 7.06317 | 36046 ft | 408 kts | 232° |
| 2026-05-09 15:30 | 51.29016 | 6.99112 | 36047 ft | 407 kts | 232° |
| 2026-05-09 15:30 | 51.25599 | 6.91885 | 36054 ft | 407 kts | 232° |
| 2026-05-09 15:31 | 51.22227 | 6.84739 | 36051 ft | 406 kts | 232° |
| 2026-05-09 15:31 | 51.18813 | 6.77517 | 36050 ft | 406 kts | 232° |
| 2026-05-09 15:32 | 51.15430 | 6.70376 | 36048 ft | 407 kts | 232° |
| 2026-05-09 15:32 | 51.12034 | 6.63224 | 36046 ft | 406 kts | 232° |
| 2026-05-09 15:33 | 51.08606 | 6.56142 | 36042 ft | 405 kts | 229° |
| 2026-05-09 15:33 | 51.04763 | 6.49627 | 36042 ft | 404 kts | 224° |
| 2026-05-09 15:34 | 51.00761 | 6.43435 | 36041 ft | 403 kts | 224° |
| 2026-05-09 15:34 | 50.96724 | 6.37211 | 36036 ft | 403 kts | 224° |
| 2026-05-09 15:35 | 50.92747 | 6.31027 | 36040 ft | 403 kts | 223° |
| 2026-05-09 15:35 | 50.88766 | 6.24809 | 35638 ft | 398 kts | 223° |
| 2026-05-09 15:36 | 50.86825 | 6.21773 | 35163 ft | 397 kts | 223° |
| 2026-05-09 15:36 | 50.84858 | 6.18699 | 34714 ft | 395 kts | 223° |
| 2026-05-09 15:36 | 50.82930 | 6.15689 | 34231 ft | 392 kts | 223° |
| 2026-05-09 15:36 | 50.80999 | 6.12678 | 33769 ft | 388 kts | 223° |
| 2026-05-09 15:37 | 50.79092 | 6.09706 | 33317 ft | 384 kts | 223° |
| 2026-05-09 15:37 | 50.77217 | 6.06789 | 32870 ft | 380 kts | 223° |
| 2026-05-09 15:37 | 50.75336 | 6.03865 | 32425 ft | 376 kts | 223° |
| 2026-05-09 15:37 | 50.73532 | 6.00929 | 31960 ft | 373 kts | 226° |
| 2026-05-09 15:38 | 50.71846 | 5.97923 | 31533 ft | 370 kts | 228° |
| 2026-05-09 15:38 | 50.70314 | 5.94652 | 31100 ft | 367 kts | 237° |
| 2026-05-09 15:38 | 50.69214 | 5.91068 | 30670 ft | 365 kts | 248° |
| 2026-05-09 15:38 | 50.68487 | 5.87282 | 30237 ft | 363 kts | 255° |
| 2026-05-09 15:39 | 50.68034 | 5.83393 | 29803 ft | 361 kts | 261° |
| 2026-05-09 15:39 | 50.67965 | 5.79476 | 29345 ft | 361 kts | 271° |
| 2026-05-09 15:39 | 50.68379 | 5.75544 | 28837 ft | 363 kts | 282° |
| 2026-05-09 15:39 | 50.69166 | 5.71787 | 28326 ft | 364 kts | 289° |
| 2026-05-09 15:40 | 50.70180 | 5.68134 | 28025 ft | 376 kts | 292° |
| 2026-05-09 15:40 | 50.71375 | 5.64300 | 27856 ft | 395 kts | 294° |
| 2026-05-09 15:40 | 50.72654 | 5.60363 | 27761 ft | 412 kts | 294° |
| 2026-05-09 15:40 | 50.73970 | 5.56358 | 27651 ft | 420 kts | 294° |
| 2026-05-09 15:41 | 50.75320 | 5.52241 | 27378 ft | 418 kts | 294° |
| 2026-05-09 15:41 | 50.76632 | 5.48220 | 27013 ft | 413 kts | 294° |
| 2026-05-09 15:41 | 50.77927 | 5.44229 | 26504 ft | 408 kts | 294° |
| 2026-05-09 15:41 | 50.79201 | 5.40275 | 25935 ft | 405 kts | 294° |
| 2026-05-09 15:42 | 50.80470 | 5.36306 | 25347 ft | 403 kts | 294° |
| 2026-05-09 15:42 | 50.81715 | 5.32392 | 24766 ft | 401 kts | 293° |
| 2026-05-09 15:42 | 50.82959 | 5.28466 | 24179 ft | 398 kts | 293° |
| 2026-05-09 15:42 | 50.84182 | 5.24596 | 23605 ft | 396 kts | 293° |
| 2026-05-09 15:43 | 50.85400 | 5.20731 | 23022 ft | 394 kts | 293° |
| 2026-05-09 15:43 | 50.86545 | 5.16798 | 22416 ft | 390 kts | 289° |
| 2026-05-09 15:43 | 50.87394 | 5.12796 | 21834 ft | 385 kts | 281° |
| 2026-05-09 15:43 | 50.87900 | 5.08659 | 21185 ft | 382 kts | 275° |
| 2026-05-09 15:44 | 50.88187 | 5.04540 | 20623 ft | 379 kts | 272° |
| 2026-05-09 15:44 | 50.88380 | 5.00410 | 20067 ft | 375 kts | 271° |
| 2026-05-09 15:44 | 50.88538 | 4.96336 | 19514 ft | 371 kts | 271° |
| 2026-05-09 15:44 | 50.88687 | 4.92260 | 18954 ft | 368 kts | 271° |
| 2026-05-09 15:45 | 50.88834 | 4.88281 | 18495 ft | 362 kts | 271° |
| 2026-05-09 15:45 | 50.88985 | 4.84323 | 17985 ft | 357 kts | 272° |
| 2026-05-09 15:45 | 50.89137 | 4.80464 | 17449 ft | 353 kts | 272° |
| 2026-05-09 15:45 | 50.89295 | 4.76586 | 16943 ft | 349 kts | 272° |
| 2026-05-09 15:46 | 50.89451 | 4.72818 | 16428 ft | 346 kts | 272° |
| 2026-05-09 15:46 | 50.89610 | 4.69030 | 15911 ft | 343 kts | 272° |
| 2026-05-09 15:46 | 50.89766 | 4.65289 | 15399 ft | 340 kts | 272° |
| 2026-05-09 15:46 | 50.89917 | 4.61618 | 14897 ft | 336 kts | 272° |
| 2026-05-09 15:47 | 50.89924 | 4.57930 | 14365 ft | 333 kts | 264° |
| 2026-05-09 15:47 | 50.89358 | 4.54446 | 13866 ft | 329 kts | 245° |
| 2026-05-09 15:47 | 50.88083 | 4.51520 | 13477 ft | 319 kts | 227° |
| 2026-05-09 15:47 | 50.86440 | 4.49282 | 13148 ft | 302 kts | 220° |
| 2026-05-09 15:48 | 50.84801 | 4.47316 | 12807 ft | 291 kts | 219° |
| 2026-05-09 15:48 | 50.83190 | 4.45415 | 12407 ft | 289 kts | 219° |
| 2026-05-09 15:48 | 50.81607 | 4.43547 | 12043 ft | 286 kts | 219° |
| 2026-05-09 15:48 | 50.80021 | 4.41673 | 11684 ft | 283 kts | 219° |
| 2026-05-09 15:49 | 50.78451 | 4.39815 | 11325 ft | 280 kts | 219° |
| 2026-05-09 15:49 | 50.76909 | 4.37988 | 10973 ft | 278 kts | 219° |
| 2026-05-09 15:49 | 50.75367 | 4.36163 | 10620 ft | 276 kts | 219° |
| 2026-05-09 15:49 | 50.73834 | 4.34351 | 10267 ft | 273 kts | 218° |
| 2026-05-09 15:50 | 50.72322 | 4.32567 | 10000 ft | 268 kts | 218° |
| 2026-05-09 15:50 | 50.70767 | 4.31013 | 9637 ft | 268 kts | 206° |
| 2026-05-09 15:50 | 50.68969 | 4.30365 | 9308 ft | 266 kts | 179° |
| 2026-05-09 15:50 | 50.67197 | 4.30984 | 9036 ft | 259 kts | 158° |
| 2026-05-09 15:51 | 50.65605 | 4.32264 | 8732 ft | 258 kts | 153° |
| 2026-05-09 15:51 | 50.63983 | 4.33643 | 8368 ft | 271 kts | 153° |
| 2026-05-09 15:51 | 50.62318 | 4.35044 | 7949 ft | 270 kts | 152° |
| 2026-05-09 15:51 | 50.60674 | 4.36422 | 7535 ft | 269 kts | 152° |
| 2026-05-09 15:52 | 50.57419 | 4.39145 | 6701 ft | 264 kts | 151° |
| 2026-05-09 15:52 | 50.55794 | 4.40507 | 6278 ft | 262 kts | 151° |
| 2026-05-09 15:52 | 50.54203 | 4.41831 | 5862 ft | 261 kts | 152° |
| 2026-05-09 15:53 | 50.52509 | 4.42850 | 5457 ft | 264 kts | 168° |
| 2026-05-09 15:53 | 50.50683 | 4.42715 | 5029 ft | 268 kts | 197° |
| 2026-05-09 15:53 | 50.49065 | 4.41246 | 4616 ft | 270 kts | 221° |
| 2026-05-09 15:53 | 50.47876 | 4.38978 | 4202 ft | 272 kts | 239° |
| 2026-05-09 15:54 | 50.47240 | 4.36234 | 3782 ft | 273 kts | 264° |
| 2026-05-09 15:54 | 50.47261 | 4.33278 | 3382 ft | 273 kts | 276° |
| 2026-05-09 15:54 | 50.47472 | 4.30293 | 2954 ft | 274 kts | 277° |
| 2026-05-09 15:54 | 50.47608 | 4.27373 | 2759 ft | 266 kts | 268° |
| 2026-05-09 15:55 | 50.47198 | 4.24634 | 2773 ft | 251 kts | 246° |
| 2026-05-09 15:55 | 50.46412 | 4.22263 | 2657 ft | 242 kts | 238° |
| 2026-05-09 15:55 | 50.45314 | 4.20306 | 2493 ft | 234 kts | 215° |
| 2026-05-09 15:55 | 50.43924 | 4.19184 | 2473 ft | 216 kts | 195° |
| 2026-05-09 15:56 | 50.42494 | 4.19028 | 2451 ft | 201 kts | 165° |
| 2026-05-09 15:56 | 50.41209 | 4.19813 | 2463 ft | 199 kts | 149° |
| 2026-05-09 15:56 | 50.40209 | 4.21140 | 2452 ft | 178 kts | 117° |
| 2026-05-09 15:56 | 50.39887 | 4.22862 | 2466 ft | 162 kts | 91° |
| 2026-05-09 15:57 | 50.39958 | 4.24660 | 2462 ft | 164 kts | 74° |
| 2026-05-09 15:57 | 50.40396 | 4.26288 | 2467 ft | 161 kts | 62° |
| 2026-05-09 15:57 | 50.40908 | 4.27846 | 2469 ft | 161 kts | 64° |
| 2026-05-09 15:57 | 50.41369 | 4.29408 | 2468 ft | 154 kts | 66° |
| 2026-05-09 15:58 | 50.41799 | 4.30906 | 2458 ft | 149 kts | 65° |